createdAt,value
2019-04-22T00:00:44.834Z,89.70
2019-04-22T00:03:16.724Z,89.70
2019-04-22T00:06:05.535Z,90.00
2019-04-22T00:08:46.394Z,90.00
2019-04-22T00:11:22.273Z,90.00
2019-04-22T00:16:17.869Z,89.60
2019-04-22T00:19:11.490Z,89.80
2019-04-22T00:21:25.991Z,89.30
2019-04-22T00:23:54.819Z,89.70
2019-04-22T00:26:31.250Z,89.30
2019-04-22T00:29:20.844Z,89.60
2019-04-22T00:31:52.905Z,89.60
2019-04-22T00:34:27.004Z,89.40
2019-04-22T00:37:00.925Z,89.40
2019-04-22T00:39:37.216Z,89.50
2019-04-22T00:42:10.085Z,89.80
2019-04-22T00:44:38.999Z,89.60
2019-04-22T00:47:16.402Z,89.50
2019-04-22T00:52:15.531Z,89.60
2019-04-22T00:54:53.815Z,89.10
2019-04-22T00:57:15.672Z,89.20
2019-04-22T00:59:55.101Z,89.00
2019-04-22T01:02:27.175Z,89.20
2019-04-22T01:04:54.882Z,89.50
2019-04-22T01:07:27.060Z,89.80
2019-04-22T01:09:58.893Z,89.60
2019-04-22T01:12:29.747Z,90.00
2019-04-22T01:15:05.818Z,89.70
2019-04-22T01:17:32.897Z,90.00
2019-04-22T01:20:04.971Z,90.00
2019-04-22T01:22:27.122Z,90.00
2019-04-22T01:25:03.628Z,89.30
2019-04-22T01:27:32.384Z,89.20
2019-04-22T01:29:59.698Z,88.90
2019-04-22T01:32:23.957Z,88.70
2019-04-22T01:35:03.467Z,88.50
2019-04-22T01:37:36.114Z,87.70
2019-04-22T01:40:17.345Z,88.00
2019-04-22T01:42:56.291Z,87.70
2019-04-22T01:45:19.362Z,87.90
2019-04-22T01:47:49.035Z,87.50
2019-04-22T01:50:25.785Z,87.70
2019-04-22T01:52:58.928Z,87.30
2019-04-22T01:55:52.290Z,87.10
2019-04-22T01:58:18.426Z,87.20
2019-04-22T02:01:14.702Z,86.80
2019-04-22T02:03:33.253Z,86.70
2019-04-22T02:05:59.208Z,86.10
2019-04-22T02:09:01.952Z,86.20
2019-04-22T02:11:07.771Z,86.20
2019-04-22T02:13:44.710Z,86.00
2019-04-22T02:16:16.180Z,85.90
2019-04-22T02:18:45.091Z,85.90
2019-04-22T02:21:16.247Z,85.70
2019-04-22T02:28:47.561Z,85.80
2019-04-22T02:44:08.459Z,84.70
2019-04-22T02:46:54.213Z,84.40
2019-04-22T02:49:26.798Z,84.40
2019-04-22T02:51:35.278Z,83.80
2019-04-22T02:54:29.805Z,83.60
2019-04-22T02:59:14.733Z,83.30
2019-04-22T03:04:28.386Z,83.40
2019-04-22T03:06:56.020Z,83.20
2019-04-22T03:09:25.624Z,83.00
2019-04-22T03:14:22.401Z,83.30
2019-04-22T03:19:44.732Z,82.80
2019-04-22T03:22:09.637Z,82.70
2019-04-22T03:27:08.038Z,83.20
2019-04-22T03:42:56.239Z,83.50
2019-04-22T03:47:52.908Z,83.40
2019-04-22T03:50:29.640Z,83.90
2019-04-22T03:52:56.123Z,83.40
2019-04-22T03:55:23.098Z,83.30
2019-04-22T04:00:35.665Z,83.30
2019-04-22T04:08:03.874Z,83.50
2019-04-22T04:10:35.440Z,83.40
2019-04-22T04:13:08.373Z,83.70
2019-04-22T04:20:47.185Z,83.50
2019-04-22T04:28:43.850Z,84.00
2019-04-22T04:30:59.659Z,83.70
2019-04-22T04:33:38.062Z,83.80
2019-04-22T04:41:19.529Z,84.00
2019-04-22T04:44:04.198Z,84.00
2019-04-22T04:46:27.089Z,84.10
2019-04-22T04:54:01.837Z,83.90
2019-04-22T04:56:29.657Z,83.40
2019-04-22T05:04:14.776Z,83.60
2019-04-22T05:06:43.255Z,83.50
2019-04-22T05:12:01.930Z,83.20
2019-04-22T05:14:36.860Z,83.60
2019-04-22T05:17:07.547Z,82.50
2019-04-22T05:22:12.038Z,80.00
2019-04-22T05:28:35.386Z,79.10
2019-04-22T05:31:05.053Z,78.10
2019-04-22T05:33:34.824Z,77.40
2019-04-22T05:36:49.420Z,77.80
2019-04-22T05:43:02.241Z,78.50
2019-04-22T05:45:49.483Z,78.80
2019-04-22T05:54:22.896Z,75.70
2019-04-22T05:56:58.680Z,75.90
2019-04-22T06:00:01.536Z,75.80
2019-04-22T06:02:39.799Z,74.20
2019-04-22T06:05:10.104Z,73.40
2019-04-22T06:07:45.733Z,71.80
2019-04-22T06:10:29.346Z,71.00
2019-04-22T06:12:48.099Z,70.00
2019-04-22T06:15:29.053Z,69.80
2019-04-22T06:18:12.396Z,67.50
2019-04-22T06:20:42.281Z,67.20
2019-04-22T06:23:12.155Z,65.90
2019-04-22T06:25:57.586Z,64.50
2019-04-22T06:30:41.451Z,65.60
2019-04-22T06:33:14.924Z,67.80
2019-04-22T06:35:48.682Z,69.60
2019-04-22T06:38:33.043Z,71.50
2019-04-22T06:40:54.277Z,72.70
2019-04-22T06:43:22.428Z,73.70
2019-04-22T06:45:43.789Z,73.80
2019-04-22T06:48:23.756Z,74.20
2019-04-22T06:50:56.101Z,75.30
2019-04-22T06:53:32.718Z,75.40
2019-04-22T06:58:28.342Z,75.50
2019-04-22T07:01:04.267Z,75.90
2019-04-22T07:06:23.982Z,76.50
2019-04-22T07:09:07.815Z,77.00
2019-04-22T07:11:07.881Z,76.80
2019-04-22T07:14:00.109Z,76.20
2019-04-22T07:16:05.293Z,75.50
2019-04-22T07:21:06.567Z,76.40
2019-04-22T07:28:47.274Z,76.50
2019-04-22T07:31:15.746Z,76.60
2019-04-22T07:33:51.666Z,77.20
2019-04-22T07:38:45.559Z,77.10
2019-04-22T07:41:24.829Z,77.10
2019-04-22T07:44:10.229Z,75.40
2019-04-22T07:46:27.931Z,76.40
2019-04-22T07:49:10.808Z,75.40
2019-04-22T07:51:27.060Z,75.20
2019-04-22T07:53:56.057Z,75.00
2019-04-22T07:56:29.511Z,75.20
2019-04-22T07:59:03.998Z,75.60
2019-04-22T08:01:32.436Z,73.80
2019-04-22T08:04:08.598Z,74.70
2019-04-22T08:06:36.266Z,75.30
2019-04-22T08:09:08.027Z,75.60
2019-04-22T08:14:15.692Z,74.80
2019-04-22T08:16:44.642Z,74.30
2019-04-22T08:19:18.752Z,74.50
2019-04-22T08:21:48.654Z,74.00
2019-04-22T08:24:14.606Z,74.80
2019-04-22T08:27:09.116Z,73.90
2019-04-22T08:29:26.863Z,74.20
2019-04-22T08:31:56.630Z,73.40
2019-04-22T08:34:24.559Z,74.10
2019-04-22T08:37:24.108Z,73.50
2019-04-22T08:42:35.182Z,74.40
2019-04-22T08:50:02.909Z,73.20
2019-04-22T08:55:04.941Z,73.30
2019-04-22T09:00:02.868Z,72.40
2019-04-22T09:02:39.333Z,72.30
2019-04-22T09:05:11.919Z,73.00
2019-04-22T09:07:39.180Z,73.60
2019-04-22T09:10:14.797Z,72.70
2019-04-22T09:12:57.681Z,72.00
2019-04-22T09:15:16.632Z,71.70
2019-04-22T09:17:47.935Z,71.00
2019-04-22T09:20:32.935Z,72.10
2019-04-22T09:22:48.430Z,71.10
2019-04-22T09:25:18.712Z,70.50
2019-04-22T09:27:52.643Z,71.60
2019-04-22T09:30:37.075Z,70.70
2019-04-22T09:33:36.856Z,70.30
2019-04-22T09:38:43.084Z,69.50
2019-04-22T09:41:18.870Z,68.80
2019-04-22T09:43:52.154Z,68.70
2019-04-22T09:46:22.759Z,67.80
2019-04-22T09:48:50.332Z,68.70
2019-04-22T09:51:27.263Z,68.00
2019-04-22T09:54:05.943Z,67.80
2019-04-22T09:56:31.575Z,68.10
2019-04-22T09:59:02.621Z,67.10
2019-04-22T10:02:04.078Z,67.10
2019-04-22T10:06:33.583Z,65.80
2019-04-22T10:09:25.922Z,62.90
2019-04-22T10:11:43.682Z,61.70
2019-04-22T10:14:28.403Z,62.80
2019-04-22T10:16:45.266Z,63.20
2019-04-22T10:19:11.158Z,63.00
2019-04-22T10:21:54.460Z,63.00
2019-04-22T10:24:16.701Z,62.80
2019-04-22T10:26:59.914Z,63.50
2019-04-22T10:29:19.092Z,62.80
2019-04-22T10:31:52.651Z,62.90
2019-04-22T10:34:09.296Z,63.40
2019-04-22T10:36:25.692Z,61.40
2019-04-22T10:38:55.250Z,62.30
2019-04-22T10:41:26.217Z,60.60
2019-04-22T10:43:57.051Z,60.30
2019-04-22T10:46:28.221Z,61.10
2019-04-22T10:48:58.076Z,59.90
2019-04-22T10:51:28.642Z,60.50
2019-04-22T10:53:59.629Z,60.60
2019-04-22T10:56:30.602Z,59.80
2019-04-22T10:59:00.530Z,58.90
2019-04-22T11:01:31.624Z,59.40
2019-04-22T11:04:01.551Z,59.40
2019-04-22T11:06:33.651Z,59.80
2019-04-22T11:09:04.958Z,59.90
2019-04-22T11:11:45.511Z,59.90
2019-04-22T11:14:07.024Z,57.40
2019-04-22T11:16:37.259Z,58.30
2019-04-22T11:19:07.719Z,58.20
2019-04-22T11:21:37.811Z,58.10
2019-04-22T11:24:08.529Z,59.30
2019-04-22T11:26:38.870Z,59.30
2019-04-22T11:29:09.874Z,60.40
2019-04-22T11:31:39.884Z,59.10
2019-04-22T11:34:10.941Z,58.60
2019-04-22T11:36:42.946Z,58.80
2019-04-22T11:39:13.658Z,57.60
2019-04-22T11:41:44.213Z,57.30
2019-04-22T11:44:15.072Z,57.40
2019-04-22T11:46:45.283Z,58.10
2019-04-22T11:49:16.218Z,58.00
2019-04-22T11:51:54.099Z,58.60
2019-04-22T11:54:25.067Z,58.50
2019-04-22T11:56:54.977Z,59.20
2019-04-22T11:59:24.972Z,59.40
2019-04-22T12:01:55.147Z,59.00
2019-04-22T12:04:25.656Z,59.10
2019-04-22T12:06:55.913Z,59.60
2019-04-22T12:09:26.042Z,58.80
2019-04-22T12:11:55.950Z,58.80
2019-04-22T12:14:25.801Z,56.60
2019-04-22T12:16:55.530Z,56.20
2019-04-22T12:19:25.302Z,55.60
2019-04-22T12:21:55.219Z,56.60
2019-04-22T12:24:25.127Z,56.60
2019-04-22T12:26:56.093Z,57.90
2019-04-22T12:29:26.917Z,57.40
2019-04-22T12:31:57.761Z,57.30
2019-04-22T12:34:27.425Z,56.60
2019-04-22T12:36:58.506Z,57.30
2019-04-22T12:39:29.470Z,55.80
2019-04-22T12:42:00.341Z,53.20
2019-04-22T12:44:30.498Z,53.50
2019-04-22T12:47:02.091Z,53.60
2019-04-22T12:49:35.648Z,54.70
2019-04-22T12:52:05.132Z,53.80
2019-04-22T12:54:37.197Z,53.80
2019-04-22T12:57:07.002Z,51.70
2019-04-22T12:59:37.439Z,52.50
2019-04-22T13:02:07.258Z,52.80
2019-04-22T13:04:38.490Z,54.00
2019-04-22T13:07:08.488Z,53.90
2019-04-22T13:09:39.036Z,55.00
2019-04-22T13:12:09.044Z,53.70
2019-04-22T13:14:39.149Z,53.10
2019-04-22T13:17:10.219Z,52.80
2019-04-22T13:19:40.383Z,53.30
2019-04-22T13:22:10.098Z,54.10
2019-04-22T13:24:41.580Z,52.10
2019-04-22T13:27:12.872Z,52.50
2019-04-22T13:29:43.478Z,52.10
2019-04-22T13:32:13.706Z,51.50
2019-04-22T13:34:48.065Z,49.00
2019-04-22T13:37:14.919Z,49.20
2019-04-22T13:39:45.062Z,50.10
2019-04-22T13:42:19.643Z,49.40
2019-04-22T13:44:46.288Z,49.80
2019-04-22T13:47:35.691Z,49.90
2019-04-22T13:50:23.815Z,49.50
2019-04-22T13:53:00.675Z,50.40
2019-04-22T13:55:22.089Z,51.10
2019-04-22T13:57:44.066Z,51.30
2019-04-22T13:59:56.288Z,50.60
2019-04-22T14:02:42.574Z,48.70
2019-04-22T14:05:14.865Z,47.80
2019-04-22T14:07:44.643Z,48.40
2019-04-22T14:10:16.346Z,48.50
2019-04-22T14:12:46.771Z,49.70
2019-04-22T14:15:17.944Z,50.30
2019-04-22T14:17:49.141Z,50.50
2019-04-22T14:20:20.651Z,48.80
2019-04-22T14:22:52.573Z,48.80
2019-04-22T14:25:22.997Z,48.40
2019-04-22T14:28:01.699Z,49.30
2019-04-22T14:30:24.471Z,46.80
2019-04-22T14:32:54.241Z,45.70
2019-04-22T14:35:25.040Z,45.20
2019-04-22T14:37:56.383Z,45.10
2019-04-22T14:40:28.069Z,46.00
2019-04-22T14:43:21.402Z,45.50
2019-04-22T14:46:05.514Z,46.60
2019-04-22T14:48:33.042Z,46.30
2019-04-22T14:50:52.064Z,44.70
2019-04-22T14:53:20.711Z,44.30
2019-04-22T14:55:38.127Z,45.50
2019-04-22T14:58:06.810Z,45.20
2019-04-22T15:00:37.965Z,43.80
2019-04-22T15:03:08.313Z,43.70
2019-04-22T15:05:38.186Z,43.90
2019-04-22T15:08:09.051Z,43.40
2019-04-22T15:10:39.914Z,44.00
2019-04-22T15:13:11.433Z,42.50
2019-04-22T15:16:03.041Z,40.80
2019-04-22T15:18:47.735Z,40.90
2019-04-22T15:21:20.669Z,40.20
2019-04-22T15:23:50.861Z,39.40
2019-04-22T15:26:20.611Z,39.30
2019-04-22T15:28:51.422Z,39.10
2019-04-22T15:31:21.638Z,39.80
2019-04-22T15:33:52.337Z,40.10
2019-04-22T15:36:24.120Z,40.80
2019-04-22T15:38:55.104Z,41.40
2019-04-22T15:41:24.959Z,41.40
2019-04-22T15:43:54.575Z,42.00
2019-04-22T15:46:25.639Z,42.70
2019-04-22T15:48:55.943Z,43.30
2019-04-22T15:51:26.829Z,43.20
2019-04-22T15:53:57.914Z,43.30
2019-04-22T15:56:28.462Z,43.90
2019-04-22T15:58:58.058Z,44.10
2019-04-22T16:01:33.656Z,43.70
2019-04-22T16:04:00.629Z,44.20
2019-04-22T16:06:31.938Z,44.10
2019-04-22T16:09:02.705Z,44.30
2019-04-22T16:11:33.847Z,44.60
2019-04-22T16:14:06.676Z,44.90
2019-04-22T16:16:37.140Z,44.60
2019-04-22T16:19:08.607Z,44.70
2019-04-22T16:21:46.538Z,44.10
2019-04-22T16:24:32.010Z,44.20
2019-04-22T16:27:06.562Z,44.70
2019-04-22T16:29:37.212Z,44.80
2019-04-22T16:32:07.378Z,45.80
2019-04-22T16:34:38.172Z,46.50
2019-04-22T16:37:07.945Z,46.20
2019-04-22T16:39:38.865Z,48.70
2019-04-22T16:42:09.054Z,51.10
2019-04-22T16:44:38.865Z,55.20
2019-04-22T16:47:09.844Z,56.40
2019-04-22T16:49:39.670Z,56.90
2019-04-22T16:52:10.017Z,57.00
2019-04-22T16:54:40.203Z,56.60
2019-04-22T16:57:10.127Z,56.80
2019-04-22T16:59:40.370Z,57.20
2019-04-22T17:02:30.616Z,57.30
2019-04-22T17:05:31.622Z,57.30
2019-04-22T17:08:05.667Z,57.70
2019-04-22T17:10:35.803Z,58.70
2019-04-22T17:13:11.277Z,57.60
2019-04-22T17:15:37.604Z,57.70
2019-04-22T17:18:07.750Z,58.00
2019-04-22T17:20:37.975Z,58.30
2019-04-22T17:23:07.582Z,58.50
2019-04-22T17:25:38.440Z,58.70
2019-04-22T17:28:08.069Z,58.10
2019-04-22T17:30:39.426Z,58.10
2019-04-22T17:33:10.503Z,57.00
2019-04-22T17:35:41.097Z,56.30
2019-04-22T17:38:22.669Z,55.80
2019-04-22T17:40:55.867Z,55.30
2019-04-22T17:43:50.623Z,55.20
2019-04-22T17:46:19.425Z,54.80
2019-04-22T17:49:04.000Z,54.40
2019-04-22T17:51:31.134Z,54.20
2019-04-22T17:54:04.680Z,54.60
2019-04-22T17:56:41.962Z,54.10
2019-04-22T17:59:08.279Z,54.50
2019-04-22T18:01:39.858Z,55.00
2019-04-22T18:03:56.609Z,55.00
2019-04-22T18:06:51.593Z,55.60
2019-04-22T18:09:12.416Z,55.30
2019-04-22T18:11:49.637Z,55.20
2019-04-22T18:14:41.435Z,55.30
2019-04-22T18:16:45.891Z,55.80
2019-04-22T18:19:21.040Z,55.30
2019-04-22T18:21:44.662Z,55.30
2019-04-22T18:24:13.008Z,55.10
2019-04-22T18:26:53.493Z,55.20
2019-04-22T18:29:25.442Z,55.00
2019-04-22T18:31:47.788Z,55.00
2019-04-22T18:34:23.952Z,55.20
2019-04-22T18:36:57.937Z,54.80
2019-04-22T18:39:37.369Z,55.00
2019-04-22T18:42:00.189Z,55.00
2019-04-22T18:44:35.283Z,54.90
2019-04-22T18:47:03.799Z,55.40
2019-04-22T18:49:37.340Z,55.10
2019-04-22T18:52:45.642Z,55.50
2019-04-22T18:55:33.812Z,55.60
2019-04-22T18:58:13.312Z,55.50
2019-04-22T19:00:29.366Z,55.80
2019-04-22T19:03:07.134Z,55.90
2019-04-22T19:05:51.777Z,56.10
2019-04-22T19:11:07.557Z,56.30
2019-04-22T19:16:12.773Z,56.20
2019-04-22T19:18:34.639Z,56.30
2019-04-22T19:21:05.976Z,56.20
2019-04-22T19:23:31.993Z,56.30
2019-04-22T19:26:08.292Z,56.60
2019-04-22T19:28:51.090Z,56.70
2019-04-22T19:31:09.361Z,56.70
2019-04-22T19:33:41.348Z,56.70
2019-04-22T19:36:58.749Z,56.80
2019-04-22T19:39:40.927Z,56.80
2019-04-22T19:42:20.576Z,57.30
2019-04-22T19:44:48.329Z,57.50
2019-04-22T19:47:51.605Z,57.70
2019-04-22T19:50:12.795Z,57.80
2019-04-22T19:52:43.538Z,57.70
2019-04-22T19:55:23.810Z,58.00
2019-04-22T19:57:50.720Z,58.10
2019-04-22T20:04:29.714Z,58.20
2019-04-22T20:07:13.048Z,58.50
2019-04-22T20:09:57.623Z,58.90
2019-04-22T20:12:46.765Z,58.90
2019-04-22T20:15:14.501Z,59.90
2019-04-22T20:18:11.842Z,59.60
2019-04-22T20:20:31.863Z,59.50
2019-04-22T20:23:06.709Z,59.60
2019-04-22T20:25:40.801Z,59.80
2019-04-22T20:28:13.291Z,60.30
2019-04-22T20:30:46.726Z,60.70
2019-04-22T20:33:08.396Z,61.20
2019-04-22T20:36:12.846Z,61.60
2019-04-22T20:38:38.816Z,61.90
2019-04-22T20:41:05.495Z,62.10
2019-04-22T20:43:46.970Z,62.70
2019-04-22T20:46:15.152Z,63.20
2019-04-22T20:48:50.270Z,63.60
2019-04-22T20:51:13.993Z,64.20
2019-04-22T20:53:47.973Z,64.30
2019-04-22T20:56:15.977Z,64.50
2019-04-22T20:58:51.718Z,65.10
2019-04-22T21:01:22.864Z,65.50
2019-04-22T21:03:43.770Z,65.50
2019-04-22T21:06:22.862Z,65.90
2019-04-22T21:09:01.120Z,66.40
2019-04-22T21:11:30.426Z,66.50
2019-04-22T21:13:57.117Z,66.60
2019-04-22T21:16:38.287Z,67.00
2019-04-22T21:19:10.016Z,67.10
2019-04-22T21:21:42.457Z,67.70
2019-04-22T21:23:59.692Z,67.70
2019-04-22T21:26:33.593Z,67.80
2019-04-22T21:29:07.120Z,67.80
2019-04-22T21:31:45.401Z,67.60
2019-04-22T21:34:10.137Z,67.90
2019-04-22T21:36:50.635Z,66.60
2019-04-22T21:39:12.491Z,66.50
2019-04-22T21:41:46.429Z,65.70
2019-04-22T21:44:18.488Z,66.20
2019-04-22T21:46:57.722Z,66.50
2019-04-22T21:49:25.021Z,66.10
2019-04-22T21:51:53.858Z,66.40
2019-04-22T21:54:26.985Z,66.30
2019-04-22T21:59:44.882Z,64.40
2019-04-22T22:02:25.120Z,65.00
2019-04-22T22:04:44.302Z,64.60
2019-04-22T22:07:27.635Z,64.80
2019-04-22T22:10:16.274Z,64.90
2019-04-22T22:16:52.619Z,65.80
2019-04-22T22:19:35.932Z,66.40
2019-04-22T22:22:35.236Z,67.50
2019-04-22T22:24:49.867Z,67.10
2019-04-22T22:27:18.750Z,66.70
2019-04-22T22:30:16.384Z,66.50
2019-04-22T22:32:33.736Z,66.40
2019-04-22T22:35:03.199Z,66.40
2019-04-22T22:37:20.530Z,66.50
2019-04-22T22:40:00.487Z,66.10
2019-04-22T22:42:38.639Z,66.00
2019-04-22T22:45:38.712Z,65.40
2019-04-22T22:48:44.693Z,65.30
2019-04-22T22:50:50.939Z,65.80
2019-04-22T22:53:40.336Z,65.90
2019-04-22T22:56:04.868Z,66.10
2019-04-22T22:58:34.716Z,66.80
2019-04-22T23:01:06.458Z,67.40
2019-04-22T23:03:52.952Z,68.20
2019-04-22T23:06:38.301Z,68.90
2019-04-22T23:09:05.709Z,69.10
2019-04-22T23:12:06.656Z,68.80
2019-04-22T23:14:37.091Z,68.30
2019-04-22T23:17:30.519Z,67.80
2019-04-22T23:20:05.739Z,67.60
2019-04-22T23:23:13.771Z,67.60
2019-04-22T23:26:06.803Z,67.30
2019-04-22T23:28:52.486Z,67.50
2019-04-22T23:31:41.907Z,67.60
2019-04-22T23:34:26.602Z,67.10
2019-04-22T23:37:21.792Z,67.60
2019-04-22T23:40:22.113Z,67.80
2019-04-22T23:43:00.130Z,67.80
2019-04-22T23:45:34.862Z,67.90
2019-04-22T23:47:47.322Z,68.00
2019-04-22T23:50:37.555Z,68.30
2019-04-22T23:53:55.577Z,68.10
2019-04-22T23:56:29.426Z,68.40
2019-04-22T23:59:07.088Z,68.70
